createdAt,value
2022-08-29T00:00:50.596Z,22.90
2022-08-29T00:03:21.109Z,22.90
2022-08-29T00:05:50.399Z,23.00
2022-08-29T00:08:19.343Z,23.10
2022-08-29T00:10:48.413Z,23.10
2022-08-29T00:13:17.750Z,23.20
2022-08-29T00:15:46.588Z,23.20
2022-08-29T00:18:16.331Z,23.30
2022-08-29T00:20:47.704Z,23.30
2022-08-29T00:23:16.580Z,23.30
2022-08-29T00:25:45.463Z,23.30
2022-08-29T00:28:14.506Z,23.50
2022-08-29T00:30:43.786Z,23.50
2022-08-29T00:33:12.679Z,23.40
2022-08-29T00:35:44.108Z,23.30
2022-08-29T00:38:18.267Z,23.40
2022-08-29T00:40:51.783Z,23.20
2022-08-29T00:43:24.826Z,23.20
2022-08-29T00:46:04.047Z,23.00
2022-08-29T00:48:35.561Z,23.00
2022-08-29T00:51:09.359Z,22.90
2022-08-29T00:53:42.897Z,23.10
2022-08-29T00:56:14.154Z,23.10
2022-08-29T00:58:49.798Z,23.10
2022-08-29T01:01:18.975Z,23.00
2022-08-29T01:03:48.646Z,22.90
2022-08-29T01:06:17.916Z,22.90
2022-08-29T01:08:48.980Z,23.00
2022-08-29T01:11:46.491Z,23.00
2022-08-29T01:14:16.106Z,23.00
2022-08-29T01:16:47.121Z,22.90
2022-08-29T01:19:30.471Z,23.10
2022-08-29T01:22:10.033Z,23.20
2022-08-29T01:24:44.026Z,23.30
2022-08-29T01:27:14.070Z,23.20
2022-08-29T01:29:43.570Z,23.30
2022-08-29T01:32:13.126Z,23.20
2022-08-29T01:34:43.128Z,23.30
2022-08-29T01:37:14.732Z,23.20
2022-08-29T01:39:46.292Z,23.40
2022-08-29T01:42:17.512Z,23.20
2022-08-29T01:44:51.179Z,23.20
2022-08-29T01:47:22.648Z,23.40
2022-08-29T01:49:52.018Z,23.30
2022-08-29T01:52:20.988Z,23.40
2022-08-29T01:54:51.369Z,23.30
2022-08-29T01:57:20.456Z,23.40
2022-08-29T01:59:49.662Z,23.40
2022-08-29T02:02:21.024Z,23.50
2022-08-29T02:04:51.423Z,23.50
2022-08-29T02:07:25.555Z,23.50
2022-08-29T02:09:56.356Z,23.40
2022-08-29T02:12:26.441Z,23.50
2022-08-29T02:14:56.008Z,23.30
2022-08-29T02:17:24.995Z,23.20
2022-08-29T02:19:53.878Z,23.20
2022-08-29T02:22:22.695Z,23.20
2022-08-29T02:24:51.606Z,23.10
2022-08-29T02:27:21.864Z,23.10
2022-08-29T02:29:50.775Z,23.10
2022-08-29T02:32:19.695Z,23.30
2022-08-29T02:34:48.796Z,23.30
2022-08-29T02:37:18.234Z,23.20
2022-08-29T02:39:47.106Z,23.20
2022-08-29T02:42:15.928Z,23.00
2022-08-29T02:44:46.204Z,23.10
2022-08-29T02:47:15.055Z,23.20
2022-08-29T02:49:44.000Z,23.00
2022-08-29T02:52:13.115Z,22.90
2022-08-29T02:54:42.014Z,23.00
2022-08-29T02:57:10.886Z,23.00
2022-08-29T02:59:39.686Z,22.80
2022-08-29T03:02:09.976Z,22.90
2022-08-29T03:04:38.935Z,22.80
2022-08-29T03:07:07.705Z,22.60
2022-08-29T03:09:36.666Z,22.70
2022-08-29T03:12:05.907Z,22.80
2022-08-29T03:14:34.806Z,22.80
2022-08-29T03:17:03.643Z,22.90
2022-08-29T03:19:37.330Z,22.90
2022-08-29T03:22:07.777Z,23.00
2022-08-29T03:24:37.177Z,23.00
2022-08-29T03:27:06.557Z,23.10
2022-08-29T03:29:35.408Z,23.10
2022-08-29T03:32:05.246Z,23.10
2022-08-29T03:34:35.676Z,23.00
2022-08-29T03:37:04.608Z,23.00
2022-08-29T03:39:36.525Z,23.00
2022-08-29T03:42:05.844Z,23.00
2022-08-29T03:44:35.139Z,22.90
2022-08-29T03:47:04.058Z,22.90
2022-08-29T03:49:32.841Z,23.00
2022-08-29T03:52:04.007Z,23.00
2022-08-29T03:54:33.097Z,22.80
2022-08-29T03:57:01.883Z,23.20
2022-08-29T03:59:32.086Z,22.90
2022-08-29T04:02:01.004Z,23.00
2022-08-29T04:04:47.447Z,23.00
2022-08-29T04:07:17.867Z,23.00
2022-08-29T04:09:46.703Z,23.00
2022-08-29T04:12:15.671Z,23.10
2022-08-29T04:14:44.428Z,22.90
2022-08-29T04:17:13.478Z,23.00
2022-08-29T04:19:42.368Z,22.60
2022-08-29T04:22:11.147Z,20.40
2022-08-29T04:24:41.327Z,22.90
2022-08-29T04:27:10.068Z,23.00
2022-08-29T04:29:39.270Z,23.00
2022-08-29T04:32:08.379Z,23.00
2022-08-29T04:34:37.601Z,22.80
2022-08-29T04:37:06.430Z,22.90
2022-08-29T04:39:36.302Z,23.00
2022-08-29T04:42:06.747Z,22.90
2022-08-29T04:44:35.788Z,22.80
2022-08-29T04:47:04.828Z,22.70
2022-08-29T04:49:33.588Z,22.60
2022-08-29T04:52:02.374Z,22.60
2022-08-29T04:54:31.153Z,22.60
2022-08-29T04:57:03.495Z,22.60
2022-08-29T04:59:35.430Z,22.70
2022-08-29T05:02:04.415Z,22.80
2022-08-29T05:04:33.398Z,22.90
2022-08-29T05:07:02.131Z,23.00
2022-08-29T05:09:30.907Z,23.10
2022-08-29T05:11:59.720Z,23.10
2022-08-29T05:14:28.533Z,23.30
2022-08-29T05:16:58.757Z,23.30
2022-08-29T05:19:27.471Z,23.40
2022-08-29T05:22:03.253Z,23.50
2022-08-29T05:24:34.376Z,23.60
2022-08-29T05:27:03.532Z,23.60
2022-08-29T05:29:32.427Z,23.80
2022-08-29T05:32:02.612Z,23.70
2022-08-29T05:34:34.866Z,23.70
2022-08-29T05:37:05.530Z,23.90
2022-08-29T05:39:34.839Z,23.80
2022-08-29T05:42:03.992Z,23.80
2022-08-29T05:44:35.530Z,24.00
2022-08-29T05:47:07.144Z,24.10
2022-08-29T05:49:37.517Z,24.20
2022-08-29T05:52:07.494Z,24.10
2022-08-29T05:54:39.017Z,24.20
2022-08-29T05:57:09.072Z,24.20
2022-08-29T05:59:38.491Z,24.00
2022-08-29T06:02:12.131Z,23.90
2022-08-29T06:04:41.487Z,23.90
2022-08-29T06:07:11.812Z,23.90
2022-08-29T06:09:42.333Z,23.90
2022-08-29T06:12:13.825Z,23.90
2022-08-29T06:14:50.222Z,23.80
2022-08-29T06:17:21.424Z,23.80
2022-08-29T06:19:52.914Z,23.80
2022-08-29T06:22:22.759Z,23.80
2022-08-29T06:24:55.206Z,23.80
2022-08-29T06:27:26.677Z,23.90
2022-08-29T06:29:58.179Z,24.00
2022-08-29T06:32:31.805Z,24.00
2022-08-29T06:35:00.822Z,23.80
2022-08-29T06:37:29.587Z,23.70
2022-08-29T06:39:58.473Z,23.80
2022-08-29T06:42:28.733Z,23.80
2022-08-29T06:44:58.083Z,23.90
2022-08-29T06:47:27.014Z,23.90
2022-08-29T06:49:57.432Z,23.80
2022-08-29T06:52:28.017Z,23.80
2022-08-29T06:54:57.051Z,23.80
2022-08-29T06:57:27.310Z,23.90
2022-08-29T06:59:56.339Z,23.80
2022-08-29T07:02:25.390Z,23.90
2022-08-29T07:04:54.267Z,23.90
2022-08-29T07:07:24.677Z,24.10
2022-08-29T07:09:53.533Z,24.40
2022-08-29T07:12:23.245Z,24.40
2022-08-29T07:14:56.348Z,24.50
2022-08-29T07:17:25.769Z,24.60
2022-08-29T07:19:55.526Z,24.60
2022-08-29T07:22:26.440Z,24.50
2022-08-29T07:24:56.145Z,24.40
2022-08-29T07:27:25.114Z,24.40
2022-08-29T07:29:54.150Z,24.60
2022-08-29T07:32:25.894Z,24.70
2022-08-29T07:34:56.294Z,24.60
2022-08-29T07:37:26.774Z,24.70
2022-08-29T07:39:55.817Z,24.60
2022-08-29T07:42:24.706Z,24.50
2022-08-29T07:44:53.581Z,24.50
2022-08-29T07:47:22.685Z,24.40
2022-08-29T07:49:51.566Z,24.40
2022-08-29T07:52:20.574Z,24.50
2022-08-29T07:54:50.835Z,24.40
2022-08-29T07:57:20.157Z,24.50
2022-08-29T07:59:49.114Z,24.60
2022-08-29T08:02:18.266Z,24.80
2022-08-29T08:04:47.454Z,24.90
2022-08-29T08:07:21.355Z,25.00
2022-08-29T08:10:00.125Z,25.00
2022-08-29T08:12:29.565Z,25.10
2022-08-29T08:14:58.903Z,25.20
2022-08-29T08:17:28.015Z,25.10
2022-08-29T08:19:56.825Z,25.20
2022-08-29T08:22:25.636Z,25.30
2022-08-29T08:24:54.396Z,25.10
2022-08-29T08:27:24.709Z,25.00
2022-08-29T08:29:53.517Z,25.20
2022-08-29T08:32:24.445Z,25.20
2022-08-29T08:35:01.964Z,25.10
2022-08-29T08:37:30.794Z,25.10
2022-08-29T08:40:00.124Z,25.30
2022-08-29T08:42:42.695Z,25.40
2022-08-29T08:45:13.860Z,25.50
2022-08-29T08:47:47.701Z,25.60
2022-08-29T08:50:22.273Z,25.80
2022-08-29T08:52:58.912Z,26.30
2022-08-29T08:55:35.048Z,26.40
2022-08-29T08:58:13.667Z,26.70
2022-08-29T09:00:47.752Z,26.90
2022-08-29T09:03:52.774Z,27.10
2022-08-29T09:06:33.758Z,26.60
2022-08-29T09:09:18.956Z,26.30
2022-08-29T09:11:57.854Z,26.40
2022-08-29T09:14:42.914Z,26.70
2022-08-29T09:17:16.716Z,27.10
2022-08-29T09:19:46.685Z,27.40
2022-08-29T09:22:21.617Z,27.50
2022-08-29T09:24:55.044Z,27.60
2022-08-29T09:27:27.018Z,27.80
2022-08-29T09:30:04.834Z,27.80
2022-08-29T09:32:34.013Z,28.00
2022-08-29T09:35:18.864Z,28.10
2022-08-29T09:37:58.105Z,28.10
2022-08-29T09:40:44.424Z,27.50
2022-08-29T09:43:20.415Z,27.60
2022-08-29T09:46:21.195Z,27.70
2022-08-29T09:48:52.418Z,27.80
2022-08-29T09:51:28.558Z,28.00
2022-08-29T09:54:14.440Z,28.50
2022-08-29T09:56:51.153Z,28.50
2022-08-29T09:59:25.724Z,28.50
2022-08-29T10:02:20.979Z,28.60
2022-08-29T10:04:52.725Z,27.90
2022-08-29T10:07:25.169Z,27.90
2022-08-29T10:10:02.572Z,27.80
2022-08-29T10:12:39.814Z,27.80
2022-08-29T10:15:33.434Z,27.80
2022-08-29T10:18:24.129Z,28.00
2022-08-29T10:21:03.828Z,28.60
2022-08-29T10:23:41.467Z,28.50
2022-08-29T10:26:22.588Z,29.10
2022-08-29T10:28:58.681Z,28.80
2022-08-29T10:31:34.701Z,28.60
2022-08-29T10:34:19.382Z,29.00
2022-08-29T10:36:54.033Z,28.80
2022-08-29T10:39:37.242Z,29.40
2022-08-29T10:42:11.613Z,29.80
2022-08-29T10:44:53.574Z,29.90
2022-08-29T10:47:30.050Z,29.90
2022-08-29T10:50:21.912Z,30.30
2022-08-29T10:53:05.578Z,30.00
2022-08-29T10:55:47.796Z,29.80
2022-08-29T10:58:27.655Z,29.90
2022-08-29T11:01:00.225Z,30.20
2022-08-29T11:03:36.410Z,29.90
2022-08-29T11:06:14.225Z,29.90
2022-08-29T11:08:46.975Z,29.40
2022-08-29T11:11:19.455Z,28.90
2022-08-29T11:13:54.304Z,28.80
2022-08-29T11:16:30.625Z,29.50
2022-08-29T11:19:07.018Z,29.60
2022-08-29T11:21:42.104Z,30.20
2022-08-29T11:24:12.538Z,30.40
2022-08-29T11:26:53.935Z,30.90
2022-08-29T11:29:32.899Z,31.40
2022-08-29T11:32:08.173Z,31.20
2022-08-29T11:34:48.530Z,31.90
2022-08-29T11:37:41.666Z,32.10
2022-08-29T11:40:16.704Z,31.20
2022-08-29T11:42:50.158Z,31.60
2022-08-29T11:45:37.220Z,30.20
2022-08-29T11:48:31.640Z,29.50
2022-08-29T11:51:00.989Z,29.30
2022-08-29T11:53:37.707Z,29.30
2022-08-29T11:56:31.233Z,29.30
2022-08-29T11:59:00.593Z,30.40
2022-08-29T12:01:58.793Z,29.80
2022-08-29T12:04:52.642Z,30.70
2022-08-29T12:07:25.571Z,30.60
2022-08-29T12:09:58.854Z,30.40
2022-08-29T12:12:47.506Z,29.70
2022-08-29T12:15:46.052Z,29.70
2022-08-29T12:18:50.906Z,29.60
2022-08-29T12:21:47.436Z,29.00
2022-08-29T12:24:41.900Z,29.60
2022-08-29T12:28:02.889Z,29.70
2022-08-29T12:30:37.332Z,30.10
2022-08-29T12:33:22.055Z,30.40
2022-08-29T12:36:14.060Z,30.40
2022-08-29T12:38:53.790Z,30.70
2022-08-29T12:41:46.880Z,31.30
2022-08-29T12:44:21.898Z,31.70
2022-08-29T12:46:56.448Z,32.40
2022-08-29T12:49:29.808Z,31.40
2022-08-29T12:52:01.309Z,31.30
2022-08-29T12:54:33.750Z,31.40
2022-08-29T12:57:03.228Z,31.90
2022-08-29T12:59:35.388Z,31.80
2022-08-29T13:02:04.279Z,31.80
2022-08-29T13:04:34.052Z,31.70
2022-08-29T13:07:04.990Z,32.90
2022-08-29T13:09:40.339Z,31.90
2022-08-29T13:12:12.819Z,32.80
2022-08-29T13:15:08.120Z,32.30
2022-08-29T13:17:40.538Z,31.60
2022-08-29T13:20:45.964Z,32.90
2022-08-29T13:23:24.511Z,33.30
2022-08-29T13:25:59.844Z,34.40
2022-08-29T13:28:43.655Z,33.30
2022-08-29T13:31:36.419Z,33.50
2022-08-29T13:34:22.095Z,32.00
2022-08-29T13:36:59.497Z,32.50
2022-08-29T13:39:43.751Z,34.10
2022-08-29T13:42:30.654Z,33.70
2022-08-29T13:45:22.038Z,34.60
2022-08-29T13:48:19.108Z,33.30
2022-08-29T13:50:48.423Z,32.60
2022-08-29T13:53:17.260Z,32.60
2022-08-29T13:55:46.152Z,33.10
2022-08-29T13:58:16.059Z,33.30
2022-08-29T14:00:45.146Z,34.30
2022-08-29T14:03:27.269Z,34.90
2022-08-29T14:05:56.901Z,33.60
2022-08-29T14:08:26.501Z,34.00
2022-08-29T14:10:55.366Z,33.90
2022-08-29T14:13:24.327Z,33.40
2022-08-29T14:15:53.272Z,33.50
2022-08-29T14:18:23.558Z,33.60
2022-08-29T14:20:52.437Z,35.10
2022-08-29T14:23:23.269Z,35.40
2022-08-29T14:25:52.324Z,34.40
2022-08-29T14:28:21.158Z,33.40
2022-08-29T14:30:50.058Z,33.80
2022-08-29T14:33:23.814Z,34.40
2022-08-29T14:35:52.848Z,33.60
2022-08-29T14:38:21.718Z,33.50
2022-08-29T14:40:50.654Z,33.10
2022-08-29T14:43:19.656Z,32.90
2022-08-29T14:45:48.567Z,31.90
2022-08-29T14:48:17.687Z,32.60
2022-08-29T14:50:48.077Z,32.90
2022-08-29T14:53:16.896Z,33.40
2022-08-29T14:55:45.697Z,34.50
2022-08-29T14:58:14.798Z,36.00
2022-08-29T15:00:44.247Z,35.50
2022-08-29T15:03:13.108Z,35.30
2022-08-29T15:05:43.897Z,35.40
2022-08-29T15:08:17.277Z,34.30
2022-08-29T15:10:46.366Z,34.10
2022-08-29T15:13:15.425Z,35.20
2022-08-29T15:15:51.625Z,35.10
2022-08-29T15:19:00.642Z,34.80
2022-08-29T15:21:11.214Z,34.80
2022-08-29T15:23:41.522Z,35.80
2022-08-29T15:26:10.347Z,36.30
2022-08-29T15:28:39.535Z,36.20
2022-08-29T15:31:08.679Z,36.50
2022-08-29T15:33:37.501Z,35.90
2022-08-29T15:36:06.625Z,35.50
2022-08-29T15:38:38.265Z,36.40
2022-08-29T15:41:09.082Z,36.80
2022-08-29T15:43:37.949Z,35.60
2022-08-29T15:46:07.648Z,33.90
2022-08-29T15:48:37.609Z,34.80
2022-08-29T15:51:06.586Z,34.40
2022-08-29T15:53:35.524Z,34.40
2022-08-29T15:56:04.376Z,34.30
2022-08-29T15:58:34.667Z,34.50
2022-08-29T16:01:05.083Z,34.10
2022-08-29T16:03:34.205Z,33.80
2022-08-29T16:06:03.117Z,33.40
2022-08-29T16:08:32.167Z,34.30
2022-08-29T16:11:01.278Z,34.60
2022-08-29T16:13:30.266Z,34.10
2022-08-29T16:16:00.652Z,34.90
2022-08-29T16:18:29.675Z,35.80
2022-08-29T16:20:58.599Z,35.70
2022-08-29T16:23:27.686Z,35.00
2022-08-29T16:25:56.510Z,35.50
2022-08-29T16:28:25.466Z,36.20
2022-08-29T16:30:54.420Z,36.10
2022-08-29T16:33:24.758Z,36.50
2022-08-29T16:35:53.894Z,36.80
2022-08-29T16:38:22.775Z,36.70
2022-08-29T16:40:51.773Z,35.50
2022-08-29T16:43:20.623Z,35.70
2022-08-29T16:45:49.600Z,35.30
2022-08-29T16:48:18.613Z,35.60
2022-08-29T16:50:49.781Z,35.90
2022-08-29T16:53:19.499Z,35.90
2022-08-29T16:55:48.456Z,35.60
2022-08-29T16:58:34.674Z,35.40
2022-08-29T17:01:03.766Z,35.50
2022-08-29T17:03:32.820Z,35.40
2022-08-29T17:06:03.150Z,35.10
2022-08-29T17:08:30.890Z,34.50
2022-08-29T17:10:58.796Z,34.20
2022-08-29T17:13:26.369Z,34.10
2022-08-29T17:15:54.890Z,33.80
2022-08-29T17:18:23.961Z,32.90
2022-08-29T17:20:54.275Z,32.30
2022-08-29T17:23:24.618Z,31.90
2022-08-29T17:25:53.695Z,31.50
2022-08-29T17:28:23.020Z,31.30
2022-08-29T17:30:52.131Z,31.10
2022-08-29T17:33:21.726Z,31.00
2022-08-29T17:35:50.718Z,31.00
2022-08-29T17:38:20.216Z,30.90
2022-08-29T17:40:51.598Z,30.80
2022-08-29T17:43:21.061Z,30.80
2022-08-29T17:45:50.261Z,30.70
2022-08-29T17:48:19.596Z,30.50
2022-08-29T17:50:49.056Z,30.40
2022-08-29T17:53:19.875Z,29.90
2022-08-29T17:55:51.320Z,29.70
2022-08-29T17:58:22.010Z,29.70
2022-08-29T18:00:51.802Z,29.50
2022-08-29T18:03:20.843Z,29.60
2022-08-29T18:05:49.685Z,29.50
2022-08-29T18:08:18.649Z,29.40
2022-08-29T18:10:47.725Z,29.20
2022-08-29T18:13:21.592Z,29.10
2022-08-29T18:15:52.684Z,29.10
2022-08-29T18:18:22.205Z,29.20
2022-08-29T18:20:51.236Z,29.10
2022-08-29T18:23:20.104Z,29.10
2022-08-29T18:25:49.225Z,28.90
2022-08-29T18:28:19.746Z,28.60
2022-08-29T18:30:48.706Z,28.70
2022-08-29T18:33:17.644Z,28.80
2022-08-29T18:35:46.744Z,28.60
2022-08-29T18:38:15.992Z,28.40
2022-08-29T18:40:45.182Z,28.50
2022-08-29T18:43:15.549Z,28.50
2022-08-29T18:45:46.031Z,28.50
2022-08-29T18:48:15.006Z,28.50
2022-08-29T18:50:44.649Z,28.40
2022-08-29T18:53:15.817Z,28.30
2022-08-29T18:55:51.165Z,28.20
2022-08-29T18:58:22.731Z,28.10
2022-08-29T19:00:53.613Z,28.00
2022-08-29T19:03:22.911Z,28.10
2022-08-29T19:05:54.127Z,28.10
2022-08-29T19:08:25.949Z,28.00
2022-08-29T19:13:44.229Z,27.90
2022-08-29T19:15:00.817Z,27.90
2022-08-29T19:16:14.644Z,27.80
2022-08-29T19:18:43.720Z,27.80
2022-08-29T19:21:11.520Z,27.90
2022-08-29T19:23:42.629Z,27.80
2022-08-29T19:26:14.509Z,27.80
2022-08-29T19:28:43.651Z,27.60
2022-08-29T19:31:15.039Z,27.60
2022-08-29T19:33:45.319Z,27.70
2022-08-29T19:36:14.893Z,27.70
2022-08-29T19:38:43.749Z,27.40
2022-08-29T19:41:13.243Z,27.20
2022-08-29T19:43:42.522Z,27.00
2022-08-29T19:46:14.528Z,27.10
2022-08-29T19:48:48.606Z,27.10
2022-08-29T19:51:21.708Z,27.10
2022-08-29T19:53:53.788Z,27.20
2022-08-29T19:56:23.298Z,27.30
2022-08-29T19:58:52.219Z,27.20
2022-08-29T20:01:21.585Z,27.30
2022-08-29T20:03:53.600Z,27.30
2022-08-29T20:06:23.392Z,27.20
2022-08-29T20:08:52.319Z,27.30
2022-08-29T20:11:25.050Z,27.30
2022-08-29T20:13:57.029Z,27.30
2022-08-29T20:16:29.662Z,27.20
2022-08-29T20:19:05.499Z,27.10
2022-08-29T20:21:36.029Z,27.20
2022-08-29T20:24:07.743Z,27.10
2022-08-29T20:26:38.259Z,27.20
2022-08-29T20:29:10.698Z,27.00
2022-08-29T20:31:40.457Z,26.80
2022-08-29T20:34:11.698Z,26.80
2022-08-29T20:36:58.115Z,26.80
2022-08-29T20:39:27.152Z,26.80
2022-08-29T20:41:58.892Z,26.80
2022-08-29T20:44:33.994Z,26.80
2022-08-29T20:47:04.230Z,26.70
2022-08-29T20:49:34.941Z,26.80
2022-08-29T20:52:05.088Z,26.90
2022-08-29T20:54:35.474Z,26.80
2022-08-29T20:57:04.388Z,26.70
2022-08-29T20:59:34.549Z,26.60
2022-08-29T21:02:05.057Z,26.80
2022-08-29T21:04:52.564Z,26.90
2022-08-29T21:07:21.952Z,27.00
2022-08-29T21:09:52.234Z,26.90
2022-08-29T21:12:21.833Z,26.80
2022-08-29T21:14:56.424Z,26.70
2022-08-29T21:17:25.393Z,26.60
2022-08-29T21:19:55.751Z,26.60
2022-08-29T21:22:25.272Z,26.60
2022-08-29T21:24:59.000Z,26.50
2022-08-29T21:27:28.561Z,26.40
2022-08-29T21:29:58.327Z,26.40
2022-08-29T21:32:27.362Z,26.50
2022-08-29T21:34:57.971Z,26.40
2022-08-29T21:37:27.023Z,26.60
2022-08-29T21:39:55.964Z,26.40
2022-08-29T21:42:25.462Z,26.40
2022-08-29T21:44:59.403Z,26.50
2022-08-29T21:47:28.442Z,26.40
2022-08-29T21:49:58.701Z,26.30
2022-08-29T21:52:27.742Z,26.30
2022-08-29T21:54:56.592Z,26.30
2022-08-29T21:57:43.046Z,26.30
2022-08-29T22:00:13.415Z,26.30
2022-08-29T22:02:42.561Z,26.40
2022-08-29T22:05:13.591Z,26.40
2022-08-29T22:07:43.053Z,26.40
2022-08-29T22:10:13.944Z,26.40
2022-08-29T22:12:43.016Z,26.50
2022-08-29T22:15:29.616Z,26.40
2022-08-29T22:17:58.489Z,26.50
2022-08-29T22:20:29.261Z,26.40
2022-08-29T22:22:58.057Z,26.20
2022-08-29T22:25:26.956Z,26.10
2022-08-29T22:27:55.781Z,26.30
2022-08-29T22:30:31.932Z,26.20
2022-08-29T22:33:01.531Z,26.10
2022-08-29T22:35:32.206Z,26.10
2022-08-29T22:38:01.085Z,26.30
2022-08-29T22:40:30.369Z,26.20
2022-08-29T22:42:59.416Z,26.20
2022-08-29T22:45:28.277Z,26.10
2022-08-29T22:47:57.129Z,26.20
2022-08-29T22:50:27.310Z,26.30
2022-08-29T22:52:59.850Z,26.30
2022-08-29T22:57:57.480Z,26.30
2022-08-29T23:00:27.660Z,26.20
2022-08-29T23:02:56.605Z,26.10
2022-08-29T23:05:25.750Z,25.80
2022-08-29T23:07:54.677Z,25.90
2022-08-29T23:10:25.110Z,26.10
2022-08-29T23:12:53.888Z,25.90
2022-08-29T23:15:22.870Z,26.10
2022-08-29T23:17:51.711Z,25.90
2022-08-29T23:20:20.649Z,26.00
2022-08-29T23:22:49.559Z,26.00
2022-08-29T23:25:18.425Z,25.90
2022-08-29T23:27:48.766Z,25.80
2022-08-29T23:30:19.266Z,25.90
2022-08-29T23:32:48.241Z,25.80
2022-08-29T23:35:17.260Z,25.80
2022-08-29T23:37:46.099Z,25.90
2022-08-29T23:40:15.035Z,25.60
2022-08-29T23:42:43.932Z,25.60
2022-08-29T23:45:15.572Z,25.50
2022-08-29T23:47:44.461Z,25.60
2022-08-29T23:50:14.389Z,25.70
2022-08-29T23:52:44.258Z,25.70
2022-08-29T23:55:15.332Z,25.80
2022-08-29T23:57:44.687Z,25.80
